createdAt,value
2022-11-07T00:00:00.717Z,0
2022-11-07T00:01:06.709Z,0
2022-11-07T00:02:12.875Z,0
2022-11-07T00:03:19.045Z,0
2022-11-07T00:04:25.271Z,0
2022-11-07T00:05:31.385Z,0
2022-11-07T00:06:37.543Z,0
2022-11-07T00:07:42.733Z,0
2022-11-07T00:08:48.895Z,0
2022-11-07T00:09:55.072Z,0
2022-11-07T00:11:01.247Z,0
2022-11-07T00:12:07.411Z,0
2022-11-07T00:13:13.585Z,0
2022-11-07T00:14:19.751Z,0
2022-11-07T00:15:25.925Z,0
2022-11-07T00:16:32.096Z,0
2022-11-07T00:17:38.269Z,0
2022-11-07T00:18:44.429Z,0
2022-11-07T00:19:50.659Z,0
2022-11-07T00:20:56.870Z,0
2022-11-07T00:22:02.000Z,0
2022-11-07T00:23:08.149Z,0
2022-11-07T00:24:14.358Z,0
2022-11-07T00:25:20.467Z,0
2022-11-07T00:26:26.645Z,0
2022-11-07T00:27:32.924Z,0
2022-11-07T00:28:38.983Z,0
2022-11-07T00:29:45.158Z,0
2022-11-07T00:30:51.319Z,0
2022-11-07T00:31:57.552Z,0
2022-11-07T00:33:03.666Z,0
2022-11-07T00:34:09.829Z,0
2022-11-07T00:35:15.990Z,0
2022-11-07T00:36:21.195Z,0
2022-11-07T00:37:27.454Z,0
2022-11-07T00:38:33.528Z,0
2022-11-07T00:39:39.694Z,0
2022-11-07T00:40:45.869Z,0
2022-11-07T00:41:52.025Z,0
2022-11-07T00:42:58.195Z,0
2022-11-07T00:44:04.360Z,0
2022-11-07T00:45:10.534Z,0
2022-11-07T00:46:16.714Z,0
2022-11-07T00:47:22.978Z,0
2022-11-07T00:48:29.065Z,0
2022-11-07T00:49:35.204Z,0
2022-11-07T00:50:40.464Z,0
2022-11-07T00:51:46.588Z,0
2022-11-07T00:52:52.741Z,0
2022-11-07T00:53:58.924Z,0
2022-11-07T00:55:05.090Z,0
2022-11-07T00:56:11.251Z,0
2022-11-07T00:57:17.462Z,0
2022-11-07T00:58:23.575Z,0
2022-11-07T00:59:29.759Z,0
2022-11-07T01:00:35.918Z,0
2022-11-07T01:01:42.117Z,0
2022-11-07T01:02:48.264Z,0
2022-11-07T01:03:54.431Z,0
2022-11-07T01:04:59.626Z,0
2022-11-07T01:06:05.800Z,0
2022-11-07T01:07:11.950Z,0
2022-11-07T01:08:18.140Z,0
2022-11-07T01:09:24.314Z,0
2022-11-07T01:10:30.475Z,0
2022-11-07T01:11:36.630Z,0
2022-11-07T01:12:42.833Z,0
2022-11-07T01:13:48.979Z,0
2022-11-07T01:14:55.159Z,0
2022-11-07T01:16:01.327Z,0
2022-11-07T01:17:07.491Z,0
2022-11-07T01:18:13.650Z,0
2022-11-07T01:20:25.079Z,0
2022-11-07T01:21:31.180Z,0
2022-11-07T01:22:37.355Z,0
2022-11-07T01:23:43.525Z,0
2022-11-07T01:24:49.696Z,0
2022-11-07T01:25:55.850Z,0
2022-11-07T01:27:02.030Z,0
2022-11-07T01:28:08.204Z,0
2022-11-07T01:29:14.361Z,0
2022-11-07T01:30:20.535Z,0
2022-11-07T01:31:26.792Z,0
2022-11-07T01:32:32.891Z,0
2022-11-07T01:33:38.091Z,0
2022-11-07T01:34:44.239Z,0
2022-11-07T01:35:50.410Z,0
2022-11-07T01:36:56.577Z,0
2022-11-07T01:38:02.748Z,0
2022-11-07T01:39:08.912Z,0
2022-11-07T01:40:15.105Z,0
2022-11-07T01:41:21.262Z,0
2022-11-07T01:42:27.560Z,0
2022-11-07T01:43:33.587Z,0
2022-11-07T01:44:39.750Z,0
2022-11-07T01:45:45.946Z,0
2022-11-07T01:46:52.114Z,0
2022-11-07T01:47:57.272Z,0
2022-11-07T01:49:03.440Z,0
2022-11-07T01:50:09.619Z,0
2022-11-07T01:51:15.810Z,0
2022-11-07T01:52:21.947Z,0
2022-11-07T01:53:28.147Z,0
2022-11-07T01:54:34.303Z,0
2022-11-07T01:55:40.491Z,0
2022-11-07T01:56:46.624Z,0
2022-11-07T01:57:52.809Z,0
2022-11-07T01:58:58.975Z,0
2022-11-07T02:00:05.140Z,0
2022-11-07T02:01:11.313Z,0
2022-11-07T02:02:16.507Z,0
2022-11-07T02:03:22.718Z,0
2022-11-07T02:04:28.848Z,0
2022-11-07T02:05:35.011Z,0
2022-11-07T02:06:41.184Z,0
2022-11-07T02:07:47.361Z,0
2022-11-07T02:08:53.519Z,0
2022-11-07T02:09:59.678Z,0
2022-11-07T02:11:05.861Z,0
2022-11-07T02:12:12.032Z,0
2022-11-07T02:13:18.196Z,0
2022-11-07T02:14:24.359Z,0
2022-11-07T02:15:30.570Z,0
2022-11-07T02:16:35.724Z,0
2022-11-07T02:17:41.890Z,0
2022-11-07T02:18:48.091Z,0
2022-11-07T02:19:54.234Z,0
2022-11-07T02:21:00.404Z,0
2022-11-07T02:22:06.671Z,0
2022-11-07T02:23:12.746Z,0
2022-11-07T02:24:18.918Z,0
2022-11-07T02:25:25.094Z,0
2022-11-07T02:26:31.241Z,0
2022-11-07T02:27:37.417Z,0
2022-11-07T02:28:43.576Z,0
2022-11-07T02:29:49.745Z,0
2022-11-07T02:30:54.945Z,0
2022-11-07T02:32:01.110Z,0
2022-11-07T02:33:07.319Z,0
2022-11-07T02:34:13.448Z,0
2022-11-07T02:35:19.610Z,0
2022-11-07T02:36:24.832Z,0
2022-11-07T02:37:31.062Z,0
2022-11-07T02:38:37.145Z,0
2022-11-07T02:39:43.323Z,0
2022-11-07T02:40:49.492Z,0
2022-11-07T02:41:55.757Z,0
2022-11-07T02:43:01.873Z,0
2022-11-07T02:44:08.002Z,0
2022-11-07T02:45:14.238Z,0
2022-11-07T02:46:20.352Z,0
2022-11-07T02:47:26.504Z,0
2022-11-07T02:48:32.665Z,0
2022-11-07T02:49:38.874Z,0
2022-11-07T02:50:44.025Z,0
2022-11-07T02:51:50.197Z,0
2022-11-07T02:52:56.369Z,0
2022-11-07T02:54:02.628Z,0
2022-11-07T02:55:08.754Z,0
2022-11-07T02:56:14.890Z,0
2022-11-07T02:57:21.031Z,0
2022-11-07T02:59:33.376Z,0
2022-11-07T03:00:39.554Z,0
2022-11-07T03:01:45.728Z,0
2022-11-07T03:02:51.895Z,0
2022-11-07T03:03:58.097Z,0
2022-11-07T03:05:03.278Z,0
2022-11-07T03:06:09.409Z,0
2022-11-07T03:07:15.585Z,0
2022-11-07T03:08:21.756Z,0
2022-11-07T03:09:27.935Z,0
2022-11-07T03:10:34.097Z,0
2022-11-07T03:11:40.272Z,0
2022-11-07T03:12:46.460Z,0
2022-11-07T03:13:52.597Z,0
2022-11-07T03:14:58.776Z,0
2022-11-07T03:16:04.954Z,0
2022-11-07T03:17:11.118Z,0
2022-11-07T03:19:23.528Z,0
2022-11-07T03:20:28.700Z,0
2022-11-07T03:21:34.815Z,0
2022-11-07T03:22:41.017Z,0
2022-11-07T03:23:47.201Z,0
2022-11-07T03:24:53.313Z,0
2022-11-07T03:25:59.481Z,0
2022-11-07T03:27:05.668Z,0
2022-11-07T03:28:11.828Z,0
2022-11-07T03:29:17.991Z,0
2022-11-07T03:30:24.177Z,0
2022-11-07T03:31:30.345Z,0
2022-11-07T03:32:36.510Z,0
2022-11-07T03:33:42.673Z,0
2022-11-07T03:34:47.867Z,0
2022-11-07T03:35:54.070Z,0
2022-11-07T03:37:00.193Z,0
2022-11-07T03:38:06.363Z,0
2022-11-07T03:39:12.528Z,0
2022-11-07T03:40:18.719Z,0
2022-11-07T03:41:24.877Z,0
2022-11-07T03:42:31.077Z,0
2022-11-07T03:43:37.211Z,0
2022-11-07T03:44:43.380Z,0
2022-11-07T03:45:49.538Z,0
2022-11-07T03:46:55.728Z,0
2022-11-07T03:48:01.908Z,0
2022-11-07T03:49:07.071Z,0
2022-11-07T03:50:13.255Z,0
2022-11-07T03:51:19.428Z,0
2022-11-07T03:52:25.578Z,0
2022-11-07T03:53:31.752Z,0
2022-11-07T03:54:37.935Z,0
2022-11-07T03:55:44.109Z,0
2022-11-07T03:56:50.268Z,0
2022-11-07T03:57:56.445Z,0
2022-11-07T03:59:02.591Z,0
2022-11-07T04:00:08.777Z,0
2022-11-07T04:01:14.952Z,0
2022-11-07T04:02:21.112Z,0
2022-11-07T04:03:26.296Z,0
2022-11-07T04:04:32.473Z,0
2022-11-07T04:05:38.645Z,0
2022-11-07T04:06:44.817Z,0
2022-11-07T04:07:50.986Z,0
2022-11-07T04:08:57.136Z,0
2022-11-07T04:10:03.323Z,0
2022-11-07T04:11:09.482Z,0
2022-11-07T04:12:15.653Z,0
2022-11-07T04:13:21.827Z,0
2022-11-07T04:14:28.040Z,0
2022-11-07T04:15:34.177Z,0
2022-11-07T04:16:40.336Z,0
2022-11-07T04:17:45.521Z,0
2022-11-07T04:18:51.682Z,0
2022-11-07T04:19:57.883Z,0
2022-11-07T04:21:04.030Z,0
2022-11-07T04:22:10.191Z,0
2022-11-07T04:23:16.362Z,0
2022-11-07T04:24:22.543Z,0
2022-11-07T04:25:28.724Z,0
2022-11-07T04:26:34.864Z,0
2022-11-07T04:27:41.036Z,0
2022-11-07T04:28:47.226Z,0
2022-11-07T04:29:53.378Z,0
2022-11-07T04:30:59.549Z,0
2022-11-07T04:32:04.752Z,0
2022-11-07T04:33:10.940Z,0
2022-11-07T04:34:17.123Z,0
2022-11-07T04:35:23.236Z,0
2022-11-07T04:36:29.447Z,0
2022-11-07T04:37:35.578Z,0
2022-11-07T04:38:41.751Z,0
2022-11-07T04:39:47.923Z,0
2022-11-07T04:40:54.094Z,0
2022-11-07T04:42:00.316Z,0
2022-11-07T04:43:06.461Z,0
2022-11-07T04:44:12.606Z,0
2022-11-07T04:45:18.779Z,0
2022-11-07T04:46:23.969Z,0
2022-11-07T04:47:30.123Z,0
2022-11-07T04:48:36.307Z,0
2022-11-07T04:49:42.473Z,0
2022-11-07T04:50:48.644Z,0
2022-11-07T04:51:54.800Z,0
2022-11-07T04:53:00.975Z,0
2022-11-07T04:54:07.142Z,0
2022-11-07T04:55:13.323Z,0
2022-11-07T04:56:19.561Z,0
2022-11-07T04:57:25.649Z,0
2022-11-07T04:58:31.837Z,0
2022-11-07T04:59:37.999Z,0
2022-11-07T05:00:43.167Z,0
2022-11-07T05:01:49.342Z,0
2022-11-07T05:02:55.529Z,0
2022-11-07T05:04:01.751Z,0
2022-11-07T05:05:07.847Z,0
2022-11-07T05:06:14.025Z,0
2022-11-07T05:07:20.198Z,0
2022-11-07T05:08:26.365Z,0
2022-11-07T05:09:32.563Z,0
2022-11-07T05:10:38.719Z,0
2022-11-07T05:11:44.878Z,0
2022-11-07T05:13:57.226Z,0
2022-11-07T05:15:02.388Z,0
2022-11-07T05:16:08.616Z,0
2022-11-07T05:17:14.727Z,0
2022-11-07T05:18:20.904Z,0
2022-11-07T05:19:27.087Z,0
2022-11-07T05:20:33.240Z,0
2022-11-07T05:21:39.413Z,0
2022-11-07T05:22:45.584Z,0
2022-11-07T05:23:51.862Z,0
2022-11-07T05:24:57.966Z,0
2022-11-07T05:26:04.153Z,0
2022-11-07T05:27:10.279Z,0
2022-11-07T05:28:16.451Z,0
2022-11-07T05:29:21.630Z,0
2022-11-07T05:30:27.791Z,0
2022-11-07T05:31:33.956Z,0
2022-11-07T05:32:40.128Z,0
2022-11-07T05:33:46.319Z,0
2022-11-07T05:34:52.489Z,0
2022-11-07T05:35:58.649Z,0
2022-11-07T05:37:04.803Z,0
2022-11-07T05:38:10.977Z,0
2022-11-07T05:39:17.145Z,0
2022-11-07T05:40:23.332Z,0
2022-11-07T05:41:29.547Z,0
2022-11-07T05:42:35.653Z,0
2022-11-07T05:43:40.845Z,0
2022-11-07T05:44:46.997Z,0
2022-11-07T05:45:53.182Z,0
2022-11-07T05:46:59.432Z,0
2022-11-07T05:48:05.512Z,0
2022-11-07T05:49:11.712Z,0
2022-11-07T05:50:17.872Z,0
2022-11-07T05:51:24.071Z,0
2022-11-07T05:52:30.345Z,0
2022-11-07T05:53:36.357Z,0
2022-11-07T05:54:42.532Z,0
2022-11-07T05:55:48.700Z,4
2022-11-07T05:56:54.883Z,4
2022-11-07T05:58:00.060Z,0
2022-11-07T05:59:06.297Z,4
2022-11-07T06:00:12.499Z,4
2022-11-07T06:01:18.574Z,4
2022-11-07T06:02:24.844Z,8
2022-11-07T06:03:30.934Z,12
2022-11-07T06:04:37.133Z,16
2022-11-07T06:05:43.263Z,12
2022-11-07T06:06:49.420Z,20
2022-11-07T06:07:55.601Z,32
2022-11-07T06:09:01.775Z,52
2022-11-07T06:10:07.961Z,40
2022-11-07T06:11:14.141Z,36
2022-11-07T06:12:19.278Z,36
2022-11-07T06:13:25.455Z,76
2022-11-07T06:14:31.682Z,84
2022-11-07T06:15:37.791Z,112
2022-11-07T06:16:43.998Z,100
2022-11-07T06:17:49.161Z,128
2022-11-07T06:18:55.332Z,128
2022-11-07T06:20:01.532Z,128
2022-11-07T06:21:07.648Z,156
2022-11-07T06:22:13.837Z,176
2022-11-07T06:23:20.015Z,196
2022-11-07T06:24:26.179Z,260
2022-11-07T06:25:32.330Z,336
2022-11-07T06:26:38.557Z,372
2022-11-07T06:27:44.667Z,416
2022-11-07T06:28:50.924Z,408
2022-11-07T06:29:57.083Z,452
2022-11-07T06:31:03.343Z,392
2022-11-07T06:32:08.397Z,492
2022-11-07T06:34:20.789Z,660
2022-11-07T06:36:33.059Z,680
2022-11-07T06:37:39.226Z,588
2022-11-07T06:38:45.388Z,564
2022-11-07T06:39:51.552Z,620
2022-11-07T06:40:57.738Z,692
2022-11-07T06:42:03.911Z,540
2022-11-07T06:43:10.118Z,468
2022-11-07T06:44:16.303Z,476
2022-11-07T06:45:22.406Z,612
2022-11-07T06:46:27.655Z,656
2022-11-07T06:47:33.775Z,844
2022-11-07T06:48:39.938Z,872
2022-11-07T06:49:46.189Z,976
2022-11-07T06:50:52.278Z,956
2022-11-07T06:51:58.445Z,740
2022-11-07T06:53:04.664Z,712
2022-11-07T06:54:10.799Z,1308
2022-11-07T06:55:16.963Z,1356
2022-11-07T06:56:23.167Z,1124
2022-11-07T06:57:29.385Z,1204
2022-11-07T06:59:41.643Z,1672
2022-11-07T07:00:46.827Z,1700
2022-11-07T07:01:52.995Z,1880
2022-11-07T07:02:59.246Z,1916
2022-11-07T07:04:05.447Z,1784
2022-11-07T07:05:11.518Z,1868
2022-11-07T07:06:17.763Z,1892
2022-11-07T07:07:23.984Z,1856
2022-11-07T07:08:30.044Z,1344
2022-11-07T07:09:36.167Z,1312
2022-11-07T07:10:42.421Z,1348
2022-11-07T07:12:54.681Z,1632
2022-11-07T07:14:00.911Z,1780
2022-11-07T07:15:06.079Z,2628
2022-11-07T07:16:12.261Z,2724
2022-11-07T07:17:18.379Z,2560
2022-11-07T07:18:24.605Z,2556
2022-11-07T07:19:30.779Z,3800
2022-11-07T07:20:36.897Z,4720
2022-11-07T07:21:43.112Z,5080
2022-11-07T07:22:49.299Z,4388
2022-11-07T07:23:55.387Z,3776
2022-11-07T07:25:01.586Z,4612
2022-11-07T07:26:07.767Z,4512
2022-11-07T07:27:13.964Z,4328
2022-11-07T07:28:20.113Z,4356
2022-11-07T07:29:25.287Z,2780
2022-11-07T07:30:31.432Z,2212
2022-11-07T07:31:37.696Z,1740
2022-11-07T07:32:43.778Z,1824
2022-11-07T07:33:50.029Z,1908
2022-11-07T07:34:56.125Z,1972
2022-11-07T07:36:02.288Z,1820
2022-11-07T07:37:08.464Z,1436
2022-11-07T07:38:14.738Z,1228
2022-11-07T07:39:20.788Z,1696
2022-11-07T07:40:26.988Z,1772
2022-11-07T07:41:33.139Z,2104
2022-11-07T07:42:39.310Z,2760
2022-11-07T07:43:44.483Z,2712
2022-11-07T07:44:50.657Z,2504
2022-11-07T07:45:56.828Z,2652
2022-11-07T07:47:03.103Z,3820
2022-11-07T07:48:09.183Z,4060
2022-11-07T07:49:15.328Z,3184
2022-11-07T07:50:21.525Z,4048
2022-11-07T07:51:27.694Z,4328
2022-11-07T07:52:33.852Z,4308
2022-11-07T07:53:40.007Z,3328
2022-11-07T07:54:46.217Z,3160
2022-11-07T07:55:52.335Z,3292
2022-11-07T07:56:58.561Z,3588
2022-11-07T07:58:03.703Z,3512
2022-11-07T07:59:09.960Z,3104
2022-11-07T08:00:16.053Z,3368
2022-11-07T08:01:22.216Z,3088
2022-11-07T08:02:28.397Z,3384
2022-11-07T08:03:34.626Z,4172
2022-11-07T08:04:40.768Z,4952
2022-11-07T08:05:46.915Z,4716
2022-11-07T08:06:53.091Z,3832
2022-11-07T08:07:59.245Z,3576
2022-11-07T08:09:05.455Z,4276
2022-11-07T08:10:11.582Z,5048
2022-11-07T08:11:17.763Z,4740
2022-11-07T08:12:23.038Z,4092
2022-11-07T08:13:29.196Z,3468
2022-11-07T08:14:35.264Z,4040
2022-11-07T08:15:41.502Z,5076
2022-11-07T08:16:47.618Z,4916
2022-11-07T08:17:53.782Z,5176
2022-11-07T08:18:59.956Z,4532
2022-11-07T08:20:06.155Z,4600
2022-11-07T08:21:12.291Z,3536
2022-11-07T08:22:18.475Z,3560
2022-11-07T08:23:24.634Z,3880
2022-11-07T08:24:30.798Z,3968
2022-11-07T08:25:36.960Z,4308
2022-11-07T08:26:42.257Z,4240
2022-11-07T08:27:48.333Z,5392
2022-11-07T08:28:54.604Z,5472
2022-11-07T08:30:00.652Z,6788
2022-11-07T08:31:06.846Z,6864
2022-11-07T08:32:13.041Z,6740
2022-11-07T08:33:19.175Z,7220
2022-11-07T08:34:25.374Z,8428
2022-11-07T08:35:31.547Z,10616
2022-11-07T08:36:37.666Z,10868
2022-11-07T08:37:43.919Z,11376
2022-11-07T08:38:50.029Z,10040
2022-11-07T08:39:56.190Z,10892
2022-11-07T08:41:01.367Z,11216
2022-11-07T08:42:07.576Z,10624
2022-11-07T08:43:13.701Z,11720
2022-11-07T08:44:19.863Z,10868
2022-11-07T08:45:26.053Z,10484
2022-11-07T08:46:32.226Z,14160
2022-11-07T08:47:38.397Z,16096
2022-11-07T08:48:44.558Z,10724
2022-11-07T08:49:50.736Z,9132
2022-11-07T08:50:56.926Z,10432
2022-11-07T08:52:03.075Z,10804
2022-11-07T08:53:09.266Z,8476
2022-11-07T08:54:15.456Z,11164
2022-11-07T08:55:20.601Z,13232
2022-11-07T08:56:26.895Z,13636
2022-11-07T08:57:33.002Z,13692
2022-11-07T08:58:39.113Z,14020
2022-11-07T08:59:45.268Z,14416
2022-11-07T09:00:51.489Z,16416
2022-11-07T09:01:57.685Z,17632
2022-11-07T09:03:03.764Z,12332
2022-11-07T09:04:09.938Z,11980
2022-11-07T09:05:16.290Z,13724
2022-11-07T09:06:22.286Z,15040
2022-11-07T09:07:28.494Z,16388
2022-11-07T09:08:34.622Z,15352
2022-11-07T09:09:39.829Z,14056
2022-11-07T09:10:46.004Z,11068
2022-11-07T09:11:52.145Z,11404
2022-11-07T09:12:58.320Z,14368
2022-11-07T09:14:04.494Z,13088
2022-11-07T09:15:10.653Z,13096
2022-11-07T09:16:16.950Z,10748
2022-11-07T09:17:23.006Z,13044
2022-11-07T09:18:29.159Z,13656
2022-11-07T09:19:35.332Z,13380
2022-11-07T09:20:41.499Z,13624
2022-11-07T09:21:47.691Z,13360
2022-11-07T09:22:53.851Z,12944
2022-11-07T09:23:59.063Z,15356
2022-11-07T09:25:05.197Z,16896
2022-11-07T09:26:11.499Z,12728
2022-11-07T09:27:17.545Z,10504
2022-11-07T09:28:23.714Z,10492
2022-11-07T09:29:29.897Z,10868
2022-11-07T09:30:36.714Z,10672
2022-11-07T09:32:48.411Z,10516
2022-11-07T09:33:54.600Z,10688
2022-11-07T09:35:00.798Z,12828
2022-11-07T09:36:06.981Z,12520
2022-11-07T09:37:13.199Z,11416
2022-11-07T09:38:18.273Z,9592
2022-11-07T09:39:24.413Z,8980
2022-11-07T09:40:30.672Z,8160
2022-11-07T09:41:36.951Z,9320
2022-11-07T09:42:43.109Z,12416
2022-11-07T09:43:49.279Z,14224
2022-11-07T09:44:55.302Z,13492
2022-11-07T09:46:01.491Z,11884
2022-11-07T09:47:07.770Z,10740
2022-11-07T09:48:13.775Z,10412
2022-11-07T09:49:19.995Z,9212
2022-11-07T09:50:26.125Z,8060
2022-11-07T09:51:32.407Z,9836
2022-11-07T09:52:37.466Z,10876
2022-11-07T09:54:49.873Z,9920
2022-11-07T09:55:55.993Z,10960
2022-11-07T09:57:02.198Z,10996
2022-11-07T09:58:08.380Z,10948
2022-11-07T09:59:13.527Z,9968
2022-11-07T10:00:19.788Z,9384
2022-11-07T10:01:25.921Z,11284
2022-11-07T10:02:32.201Z,12672
2022-11-07T10:03:38.291Z,12572
2022-11-07T10:04:44.360Z,13596
2022-11-07T10:05:50.677Z,14716
2022-11-07T10:06:56.707Z,14848
2022-11-07T10:08:02.983Z,14020
2022-11-07T10:09:09.036Z,11788
2022-11-07T10:10:15.233Z,10652
2022-11-07T10:11:21.450Z,8724
2022-11-07T10:12:27.596Z,8068
2022-11-07T10:13:32.787Z,7536
2022-11-07T10:14:38.916Z,7860
2022-11-07T10:15:45.095Z,9120
2022-11-07T10:16:51.348Z,8124
2022-11-07T10:17:57.485Z,8156
2022-11-07T10:19:03.657Z,8100
2022-11-07T10:20:09.755Z,6972
2022-11-07T10:21:15.928Z,6624
2022-11-07T10:22:22.100Z,8184
2022-11-07T10:23:28.259Z,9388
2022-11-07T10:24:34.494Z,8348
2022-11-07T10:25:40.596Z,8232
2022-11-07T10:26:46.886Z,8452
2022-11-07T10:27:51.963Z,10584
2022-11-07T10:28:58.123Z,12512
2022-11-07T10:30:04.313Z,13424
2022-11-07T10:31:10.461Z,14292
2022-11-07T10:32:16.713Z,14484
2022-11-07T10:33:22.866Z,13980
2022-11-07T10:34:29.003Z,12832
2022-11-07T10:35:35.145Z,11952
2022-11-07T10:36:41.306Z,11440
2022-11-07T10:37:47.556Z,11672
2022-11-07T10:38:53.689Z,12360
2022-11-07T10:39:59.881Z,13292
2022-11-07T10:41:05.993Z,12400
2022-11-07T10:42:11.170Z,11616
2022-11-07T10:43:17.409Z,10560
2022-11-07T10:44:23.613Z,10488
2022-11-07T10:45:29.816Z,11216
2022-11-07T10:46:35.896Z,10956
2022-11-07T10:47:42.050Z,9780
2022-11-07T10:48:48.190Z,8320
2022-11-07T10:49:54.363Z,8156
2022-11-07T10:51:00.522Z,9652
2022-11-07T10:52:06.784Z,10864
2022-11-07T10:53:12.855Z,11032
2022-11-07T10:54:19.054Z,10956
2022-11-07T10:55:25.237Z,11116
2022-11-07T10:56:30.394Z,11256
2022-11-07T10:57:36.576Z,11044
2022-11-07T10:58:42.744Z,9992
2022-11-07T10:59:48.935Z,9556
2022-11-07T11:00:55.074Z,9452
2022-11-07T11:02:01.314Z,9284
2022-11-07T11:03:07.410Z,9408
2022-11-07T11:04:13.572Z,10952
2022-11-07T11:05:19.754Z,11296
2022-11-07T11:06:25.937Z,10812
2022-11-07T11:07:32.174Z,10612
2022-11-07T11:08:38.256Z,11476
2022-11-07T11:09:44.416Z,11400
2022-11-07T11:10:49.606Z,11980
2022-11-07T11:11:55.795Z,12804
2022-11-07T11:13:02.054Z,12528
2022-11-07T11:14:08.190Z,12940
2022-11-07T11:15:14.403Z,13448
2022-11-07T11:16:20.470Z,13900
2022-11-07T11:17:26.640Z,14596
2022-11-07T11:18:32.829Z,13736
2022-11-07T11:19:38.962Z,12444
2022-11-07T11:20:45.145Z,10776
2022-11-07T11:21:51.336Z,9920
2022-11-07T11:22:57.481Z,9772
2022-11-07T11:24:03.656Z,9392
2022-11-07T11:25:08.850Z,9528
2022-11-07T11:26:15.104Z,12392
2022-11-07T11:27:21.330Z,14296
2022-11-07T11:28:27.343Z,16260
2022-11-07T11:29:33.531Z,17792
2022-11-07T11:30:39.675Z,16780
2022-11-07T11:31:45.832Z,16708
2022-11-07T11:32:52.020Z,17060
2022-11-07T11:33:58.199Z,16852
2022-11-07T11:35:04.369Z,15352
2022-11-07T11:36:10.535Z,15896
2022-11-07T11:37:16.793Z,16588
2022-11-07T11:38:22.886Z,15100
2022-11-07T11:39:28.154Z,12584
2022-11-07T11:40:34.256Z,11304
2022-11-07T11:41:40.383Z,11316
2022-11-07T11:42:46.588Z,11236
2022-11-07T11:43:52.742Z,10492
2022-11-07T11:44:58.948Z,10272
2022-11-07T11:46:05.072Z,10520
2022-11-07T11:47:11.242Z,12060
2022-11-07T11:48:17.401Z,14540
2022-11-07T11:49:23.577Z,16672
2022-11-07T11:50:29.755Z,15768
2022-11-07T11:51:35.924Z,14160
2022-11-07T11:52:42.154Z,13696
2022-11-07T11:53:47.277Z,13220
2022-11-07T11:54:53.440Z,13092
2022-11-07T11:55:59.682Z,13356
2022-11-07T11:57:05.797Z,13144
2022-11-07T11:58:11.978Z,11120
2022-11-07T11:59:18.130Z,9436
2022-11-07T12:00:24.284Z,9632
2022-11-07T12:01:30.449Z,9680
2022-11-07T12:02:36.635Z,10240
2022-11-07T12:03:42.865Z,10240
2022-11-07T12:04:48.964Z,9916
2022-11-07T12:05:55.181Z,9612
2022-11-07T12:07:01.300Z,9128
2022-11-07T12:08:06.500Z,8848
2022-11-07T12:09:12.650Z,7732
2022-11-07T12:10:18.843Z,7708
2022-11-07T12:11:25.005Z,7504
2022-11-07T12:12:31.165Z,7976
2022-11-07T12:13:37.353Z,8844
2022-11-07T12:14:43.539Z,9100
2022-11-07T12:15:49.703Z,8852
2022-11-07T12:16:55.880Z,8700
2022-11-07T12:18:02.031Z,8852
2022-11-07T12:19:08.188Z,9924
2022-11-07T12:20:14.374Z,10060
2022-11-07T12:21:20.590Z,9352
2022-11-07T12:22:25.710Z,8548
2022-11-07T12:23:31.893Z,9512
2022-11-07T12:24:38.051Z,10632
2022-11-07T12:25:44.271Z,11028
2022-11-07T12:26:50.405Z,11708
2022-11-07T12:27:56.565Z,11936
2022-11-07T12:29:02.743Z,10188
2022-11-07T12:30:08.930Z,10016
2022-11-07T12:31:15.153Z,10472
2022-11-07T12:32:21.243Z,11244
2022-11-07T12:33:27.405Z,13676
2022-11-07T12:34:33.580Z,13716
2022-11-07T12:35:39.752Z,12584
2022-11-07T12:36:45.912Z,12308
2022-11-07T12:37:52.082Z,13220
2022-11-07T12:38:58.264Z,14284
2022-11-07T12:40:04.431Z,14008
2022-11-07T12:41:10.590Z,12740
2022-11-07T12:42:15.768Z,14164
2022-11-07T12:43:22.008Z,13944
2022-11-07T12:44:28.129Z,13140
2022-11-07T12:45:34.281Z,13628
2022-11-07T12:46:40.458Z,13912
2022-11-07T12:47:46.620Z,12828
2022-11-07T12:48:52.804Z,12928
2022-11-07T12:49:58.976Z,12720
2022-11-07T12:51:05.144Z,12720
2022-11-07T12:52:11.314Z,12524
2022-11-07T12:53:17.497Z,11776
2022-11-07T12:54:23.639Z,11424
2022-11-07T12:55:29.814Z,11712
2022-11-07T12:56:35.019Z,12572
2022-11-07T12:57:41.182Z,12524
2022-11-07T12:58:47.397Z,11556
2022-11-07T13:00:59.690Z,11048
2022-11-07T13:02:05.889Z,10900
2022-11-07T13:03:12.034Z,11116
2022-11-07T13:04:18.199Z,11792
2022-11-07T13:05:24.371Z,12884
2022-11-07T13:06:30.563Z,13328
2022-11-07T13:07:36.774Z,11124
2022-11-07T13:08:42.869Z,12096
2022-11-07T13:09:49.029Z,14172
2022-11-07T13:10:54.236Z,13556
2022-11-07T13:12:00.393Z,13068
2022-11-07T13:13:06.578Z,13352
2022-11-07T13:14:12.722Z,12480
2022-11-07T13:15:18.890Z,12512
2022-11-07T13:16:25.066Z,11500
2022-11-07T13:17:31.229Z,9172
2022-11-07T13:18:37.431Z,9252
2022-11-07T13:19:43.715Z,10312
2022-11-07T13:20:49.807Z,8844
2022-11-07T13:21:56.046Z,9436
2022-11-07T13:23:02.083Z,9564
2022-11-07T13:24:08.251Z,10548
2022-11-07T13:25:13.434Z,11532
2022-11-07T13:26:19.614Z,10900
2022-11-07T13:27:25.975Z,10896
2022-11-07T13:28:31.958Z,10568
2022-11-07T13:29:38.154Z,10968
2022-11-07T13:30:44.292Z,11060
2022-11-07T13:31:50.475Z,10872
2022-11-07T13:32:56.616Z,9932
2022-11-07T13:34:02.800Z,9900
2022-11-07T13:35:08.957Z,9304
2022-11-07T13:36:15.131Z,9104
2022-11-07T13:37:21.296Z,9192
2022-11-07T13:38:27.471Z,9696
2022-11-07T13:39:32.651Z,8952
2022-11-07T13:40:37.910Z,7976
2022-11-07T13:41:44.020Z,8316
2022-11-07T13:42:50.204Z,9036
2022-11-07T13:43:56.351Z,9404
2022-11-07T13:45:02.572Z,10020
2022-11-07T13:46:08.799Z,10144
2022-11-07T13:47:14.867Z,9432
2022-11-07T13:48:21.027Z,8776
2022-11-07T13:49:27.211Z,8656
2022-11-07T13:50:33.394Z,8620
2022-11-07T13:51:39.528Z,9068
2022-11-07T13:52:45.704Z,9864
2022-11-07T13:53:51.881Z,10484
2022-11-07T13:54:57.092Z,10232
2022-11-07T13:56:03.320Z,10596
2022-11-07T13:57:09.404Z,9392
2022-11-07T13:58:15.568Z,9356
2022-11-07T13:59:21.780Z,9080
2022-11-07T14:00:27.967Z,9076
2022-11-07T14:01:34.088Z,8516
2022-11-07T14:02:40.257Z,8264
2022-11-07T14:03:46.421Z,8016
2022-11-07T14:04:52.586Z,8128
2022-11-07T14:05:58.765Z,7832
2022-11-07T14:07:04.992Z,7612
2022-11-07T14:08:11.093Z,7336
2022-11-07T14:09:16.271Z,7292
2022-11-07T14:10:22.447Z,7324
2022-11-07T14:11:28.646Z,7468
2022-11-07T14:12:34.797Z,7376
2022-11-07T14:13:40.954Z,7332
2022-11-07T14:14:47.142Z,7264
2022-11-07T14:15:53.307Z,7332
2022-11-07T14:16:59.469Z,7184
2022-11-07T14:18:05.638Z,6840
2022-11-07T14:19:11.801Z,6624
2022-11-07T14:20:17.976Z,6524
2022-11-07T14:21:24.147Z,6580
2022-11-07T14:22:30.316Z,6724
2022-11-07T14:23:35.515Z,6764
2022-11-07T14:24:41.661Z,6728
2022-11-07T14:25:47.870Z,6876
2022-11-07T14:26:54.010Z,7276
2022-11-07T14:28:00.252Z,7392
2022-11-07T14:29:06.402Z,7332
2022-11-07T14:30:12.526Z,7340
2022-11-07T14:31:18.731Z,7560
2022-11-07T14:32:24.866Z,7416
2022-11-07T14:33:31.161Z,7332
2022-11-07T14:34:37.255Z,7200
2022-11-07T14:35:43.370Z,6876
2022-11-07T14:36:49.545Z,6564
2022-11-07T14:37:54.777Z,6376
2022-11-07T14:39:00.894Z,6348
2022-11-07T14:40:07.065Z,6224
2022-11-07T14:41:13.281Z,6296
2022-11-07T14:42:19.461Z,6176
2022-11-07T14:43:25.636Z,6128
2022-11-07T14:44:31.852Z,6180
2022-11-07T14:45:37.915Z,6248
2022-11-07T14:46:44.169Z,6184
2022-11-07T14:47:50.256Z,6228
2022-11-07T14:48:56.480Z,6252
2022-11-07T14:50:02.654Z,6396
2022-11-07T14:51:08.860Z,6264
2022-11-07T14:52:13.938Z,6288
2022-11-07T14:53:20.233Z,6424
2022-11-07T14:54:26.279Z,6516
2022-11-07T14:55:32.451Z,6356
2022-11-07T14:56:38.674Z,6076
2022-11-07T14:57:44.815Z,5812
2022-11-07T14:58:50.958Z,5540
2022-11-07T14:59:57.184Z,5172
2022-11-07T15:01:03.308Z,4900
2022-11-07T15:02:09.466Z,4604
2022-11-07T15:04:21.821Z,4376
2022-11-07T15:05:27.989Z,4244
2022-11-07T15:06:33.162Z,4076
2022-11-07T15:07:39.335Z,3980
2022-11-07T15:08:45.514Z,3948
2022-11-07T15:09:51.675Z,3872
2022-11-07T15:10:57.851Z,3752
2022-11-07T15:12:04.077Z,3656
2022-11-07T15:13:10.254Z,3608
2022-11-07T15:14:16.355Z,3532
2022-11-07T15:15:22.625Z,3432
2022-11-07T15:16:28.690Z,3292
2022-11-07T15:17:34.864Z,3164
2022-11-07T15:18:41.044Z,3024
2022-11-07T15:19:47.195Z,2876
2022-11-07T15:20:52.380Z,2736
2022-11-07T15:21:58.620Z,2604
2022-11-07T15:23:04.729Z,2476